トビリシ の空港の天気 - METARとTAF

トビリシ国際空港 ( UGTB / TBS ) - ジョージア トビリシ
飛行場実況気象(Metar)
観測時間01/20 09:00 GET (01/20 05:00 UTC)
風向・風速北西 14m/s
視程10km以上
天気現象
なし
気温6℃
湿度70%
気圧1017hPa
METARUGTB 200500Z 31027KT CAVOK 06/01 Q1017 R31L/CLRD70 NOSIG
過去の天気等 Google飛行場航空写真 Wunderground天気予報

過去48時間のMETAR

飛行場予報(TAF)
発表時間: 1/20 03:00 GET (1/19 23:00 UTC)
予報対象時間: 20日4時 GET ~ 21日4時 GET
風向・風速北西 14m/s
視程10km以上
なし
20日4時 GET ~ 20日14時 GET に一時的に
風向・風速北西 18m/s 瞬間風速 23m/s
20日17時 GET ~ 20日20時 GET に徐々に
風向・風速北西 9m/s
20日22時 GET ~ 21日4時 GET に一時的に
風向・風速北北西 4m/s
TAF UGTB 192300Z 2000/2024 31028KT CAVOK TX11/2011Z TN05/2002Z
TEMPO 2000/2010 32035G45KT
BECMG 2013/2016 31018KT
TEMPO 2018/2024 33008KT